sensor_id;sensor_type;location;lat;lon;timestamp;P1;durP1;ratioP1;P2;durP2;ratioP2
77220;SDS011;66217;50.004;8.266;2022-12-24T00:01:08;11.20;;;2.45;;
77220;SDS011;66217;50.004;8.266;2022-12-24T00:03:34;8.00;;;2.22;;
77220;SDS011;66217;50.004;8.266;2022-12-24T00:06:04;15.63;;;2.47;;
77220;SDS011;66217;50.004;8.266;2022-12-24T00:08:30;13.00;;;2.75;;
77220;SDS011;66217;50.004;8.266;2022-12-24T00:10:56;9.77;;;2.28;;
77220;SDS011;66217;50.004;8.266;2022-12-24T00:13:21;14.27;;;2.33;;
77220;SDS011;66217;50.004;8.266;2022-12-24T00:15:46;17.73;;;3.15;;
77220;SDS011;66217;50.004;8.266;2022-12-24T00:18:12;11.13;;;2.33;;
77220;SDS011;66217;50.004;8.266;2022-12-24T00:20:38;10.88;;;2.40;;
77220;SDS011;66217;50.004;8.266;2022-12-24T00:23:03;13.73;;;2.78;;
77220;SDS011;66217;50.004;8.266;2022-12-24T00:25:29;18.17;;;2.42;;
77220;SDS011;66217;50.004;8.266;2022-12-24T00:27:54;12.93;;;2.58;;
77220;SDS011;66217;50.004;8.266;2022-12-24T00:30:20;14.70;;;2.42;;
77220;SDS011;66217;50.004;8.266;2022-12-24T00:32:45;8.88;;;2.50;;
77220;SDS011;66217;50.004;8.266;2022-12-24T00:35:11;14.75;;;3.80;;
77220;SDS011;66217;50.004;8.266;2022-12-24T00:37:36;8.10;;;2.40;;
77220;SDS011;66217;50.004;8.266;2022-12-24T00:40:02;13.88;;;2.35;;
77220;SDS011;66217;50.004;8.266;2022-12-24T00:42:27;14.52;;;2.25;;
77220;SDS011;66217;50.004;8.266;2022-12-24T00:44:53;14.77;;;2.72;;
77220;SDS011;66217;50.004;8.266;2022-12-24T00:47:18;11.38;;;2.35;;
77220;SDS011;66217;50.004;8.266;2022-12-24T00:49:44;14.00;;;2.60;;
77220;SDS011;66217;50.004;8.266;2022-12-24T00:52:09;6.40;;;1.80;;
77220;SDS011;66217;50.004;8.266;2022-12-24T00:54:35;7.53;;;1.80;;
77220;SDS011;66217;50.004;8.266;2022-12-24T00:57:00;14.63;;;2.33;;
77220;SDS011;66217;50.004;8.266;2022-12-24T00:59:26;15.38;;;2.67;;
77220;SDS011;66217;50.004;8.266;2022-12-24T01:01:51;21.23;;;3.17;;
77220;SDS011;66217;50.004;8.266;2022-12-24T01:04:17;13.82;;;2.08;;
77220;SDS011;66217;50.004;8.266;2022-12-24T01:07:01;7.22;;;2.08;;
77220;SDS011;66217;50.004;8.266;2022-12-24T01:09:26;8.27;;;1.98;;
77220;SDS011;66217;50.004;8.266;2022-12-24T01:11:52;9.40;;;2.03;;
77220;SDS011;66217;50.004;8.266;2022-12-24T01:14:17;14.90;;;2.65;;
77220;SDS011;66217;50.004;8.266;2022-12-24T01:16:42;9.75;;;2.47;;
77220;SDS011;66217;50.004;8.266;2022-12-24T01:19:08;12.68;;;2.10;;
77220;SDS011;66217;50.004;8.266;2022-12-24T01:21:33;7.85;;;2.03;;
77220;SDS011;66217;50.004;8.266;2022-12-24T01:23:59;14.45;;;2.47;;
77220;SDS011;66217;50.004;8.266;2022-12-24T01:26:24;14.45;;;2.30;;
77220;SDS011;66217;50.004;8.266;2022-12-24T01:28:50;14.15;;;2.63;;
77220;SDS011;66217;50.004;8.266;2022-12-24T01:31:16;14.15;;;3.08;;
77220;SDS011;66217;50.004;8.266;2022-12-24T01:33:43;14.85;;;2.65;;
77220;SDS011;66217;50.004;8.266;2022-12-24T01:36:09;12.30;;;2.42;;
77220;SDS011;66217;50.004;8.266;2022-12-24T01:38:37;8.77;;;2.17;;
77220;SDS011;66217;50.004;8.266;2022-12-24T01:41:03;12.30;;;2.50;;
77220;SDS011;66217;50.004;8.266;2022-12-24T01:43:47;17.98;;;2.75;;
77220;SDS011;66217;50.004;8.266;2022-12-24T01:46:15;7.63;;;1.98;;
77220;SDS011;66217;50.004;8.266;2022-12-24T01:48:43;13.70;;;2.40;;
77220;SDS011;66217;50.004;8.266;2022-12-24T01:54:09;11.93;;;2.60;;
77220;SDS011;66217;50.004;8.266;2022-12-24T01:56:39;13.75;;;2.38;;
77220;SDS011;66217;50.004;8.266;2022-12-24T01:59:09;11.10;;;2.50;;
77220;SDS011;66217;50.004;8.266;2022-12-24T02:01:37;11.85;;;2.33;;
77220;SDS011;66217;50.004;8.266;2022-12-24T02:04:04;10.50;;;2.10;;
77220;SDS011;66217;50.004;8.266;2022-12-24T02:06:37;11.30;;;1.90;;
77220;SDS011;66217;50.004;8.266;2022-12-24T02:09:03;15.85;;;3.28;;
77220;SDS011;66217;50.004;8.266;2022-12-24T02:11:28;13.73;;;2.97;;
77220;SDS011;66217;50.004;8.266;2022-12-24T02:13:55;16.63;;;2.70;;
77220;SDS011;66217;50.004;8.266;2022-12-24T02:18:58;13.65;;;2.25;;
77220;SDS011;66217;50.004;8.266;2022-12-24T02:21:57;14.73;;;2.75;;
77220;SDS011;66217;50.004;8.266;2022-12-24T02:27:16;10.57;;;2.33;;
77220;SDS011;66217;50.004;8.266;2022-12-24T02:32:38;12.13;;;2.60;;
77220;SDS011;66217;50.004;8.266;2022-12-24T02:35:36;14.48;;;3.30;;
77220;SDS011;66217;50.004;8.266;2022-12-24T02:40:45;14.57;;;2.67;;
77220;SDS011;66217;50.004;8.266;2022-12-24T02:43:16;9.55;;;1.90;;
77220;SDS011;66217;50.004;8.266;2022-12-24T02:45:45;15.05;;;2.92;;
77220;SDS011;66217;50.004;8.266;2022-12-24T02:48:14;15.40;;;2.90;;
77220;SDS011;66217;50.004;8.266;2022-12-24T02:50:53;13.30;;;2.47;;
77220;SDS011;66217;50.004;8.266;2022-12-24T02:53:19;12.55;;;2.28;;
77220;SDS011;66217;50.004;8.266;2022-12-24T02:55:53;15.60;;;2.92;;
77220;SDS011;66217;50.004;8.266;2022-12-24T03:01:16;14.48;;;2.65;;
77220;SDS011;66217;50.004;8.266;2022-12-24T03:09:05;15.05;;;2.40;;
77220;SDS011;66217;50.004;8.266;2022-12-24T03:11:37;8.52;;;2.45;;
77220;SDS011;66217;50.004;8.266;2022-12-24T03:14:04;11.50;;;2.53;;
77220;SDS011;66217;50.004;8.266;2022-12-24T03:16:29;9.75;;;2.00;;
77220;SDS011;66217;50.004;8.266;2022-12-24T03:18:55;16.77;;;3.28;;
77220;SDS011;66217;50.004;8.266;2022-12-24T03:21:26;8.45;;;2.08;;
77220;SDS011;66217;50.004;8.266;2022-12-24T03:23:54;11.52;;;2.40;;
77220;SDS011;66217;50.004;8.266;2022-12-24T03:26:19;10.90;;;2.30;;
77220;SDS011;66217;50.004;8.266;2022-12-24T03:28:45;13.65;;;1.92;;
77220;SDS011;66217;50.004;8.266;2022-12-24T03:31:11;9.93;;;1.90;;
77220;SDS011;66217;50.004;8.266;2022-12-24T03:33:37;10.13;;;1.73;;
77220;SDS011;66217;50.004;8.266;2022-12-24T03:36:03;10.07;;;2.15;;
77220;SDS011;66217;50.004;8.266;2022-12-24T03:38:29;10.30;;;2.67;;
77220;SDS011;66217;50.004;8.266;2022-12-24T03:40:55;13.55;;;2.72;;
77220;SDS011;66217;50.004;8.266;2022-12-24T03:43:20;9.68;;;1.95;;
77220;SDS011;66217;50.004;8.266;2022-12-24T03:45:46;13.85;;;2.50;;
77220;SDS011;66217;50.004;8.266;2022-12-24T03:48:11;12.95;;;2.45;;
77220;SDS011;66217;50.004;8.266;2022-12-24T03:50:36;12.95;;;2.20;;
77220;SDS011;66217;50.004;8.266;2022-12-24T03:53:02;10.27;;;2.08;;
77220;SDS011;66217;50.004;8.266;2022-12-24T03:55:27;18.17;;;2.88;;
77220;SDS011;66217;50.004;8.266;2022-12-24T03:57:53;10.63;;;1.95;;
77220;SDS011;66217;50.004;8.266;2022-12-24T04:00:18;14.07;;;2.20;;
77220;SDS011;66217;50.004;8.266;2022-12-24T04:02:44;17.75;;;2.50;;
77220;SDS011;66217;50.004;8.266;2022-12-24T04:05:12;14.77;;;2.80;;
77220;SDS011;66217;50.004;8.266;2022-12-24T04:07:39;15.95;;;2.53;;
77220;SDS011;66217;50.004;8.266;2022-12-24T04:10:04;9.77;;;2.47;;
77220;SDS011;66217;50.004;8.266;2022-12-24T04:12:34;14.60;;;2.78;;
77220;SDS011;66217;50.004;8.266;2022-12-24T04:15:00;8.65;;;2.35;;
77220;SDS011;66217;50.004;8.266;2022-12-24T04:17:25;14.77;;;2.80;;
77220;SDS011;66217;50.004;8.266;2022-12-24T04:19:50;8.07;;;2.28;;
77220;SDS011;66217;50.004;8.266;2022-12-24T04:22:16;11.40;;;3.20;;
77220;SDS011;66217;50.004;8.266;2022-12-24T04:24:42;15.55;;;2.95;;
77220;SDS011;66217;50.004;8.266;2022-12-24T04:27:07;12.73;;;2.33;;
77220;SDS011;66217;50.004;8.266;2022-12-24T04:29:32;9.98;;;2.33;;
77220;SDS011;66217;50.004;8.266;2022-12-24T04:31:58;17.90;;;3.50;;
77220;SDS011;66217;50.004;8.266;2022-12-24T04:34:23;15.52;;;2.45;;
77220;SDS011;66217;50.004;8.266;2022-12-24T04:36:49;10.77;;;2.35;;
77220;SDS011;66217;50.004;8.266;2022-12-24T04:39:14;13.18;;;4.05;;
77220;SDS011;66217;50.004;8.266;2022-12-24T04:41:39;23.48;;;3.38;;
77220;SDS011;66217;50.004;8.266;2022-12-24T04:44:05;11.15;;;2.42;;
77220;SDS011;66217;50.004;8.266;2022-12-24T04:46:30;12.05;;;2.40;;
77220;SDS011;66217;50.004;8.266;2022-12-24T04:48:56;12.45;;;2.15;;
77220;SDS011;66217;50.004;8.266;2022-12-24T04:51:22;8.95;;;2.00;;
77220;SDS011;66217;50.004;8.266;2022-12-24T04:53:48;15.98;;;2.63;;
77220;SDS011;66217;50.004;8.266;2022-12-24T04:56:15;10.77;;;2.13;;
77220;SDS011;66217;50.004;8.266;2022-12-24T04:58:42;16.92;;;2.97;;
77220;SDS011;66217;50.004;8.266;2022-12-24T05:01:17;8.25;;;2.25;;
77220;SDS011;66217;50.004;8.266;2022-12-24T05:03:50;11.05;;;2.28;;
77220;SDS011;66217;50.004;8.266;2022-12-24T05:06:17;13.13;;;2.63;;
77220;SDS011;66217;50.004;8.266;2022-12-24T05:08:44;10.25;;;2.03;;
77220;SDS011;66217;50.004;8.266;2022-12-24T05:11:10;16.00;;;2.75;;
77220;SDS011;66217;50.004;8.266;2022-12-24T05:13:38;12.65;;;3.15;;
77220;SDS011;66217;50.004;8.266;2022-12-24T05:16:05;17.10;;;2.70;;
77220;SDS011;66217;50.004;8.266;2022-12-24T05:18:30;12.05;;;2.33;;
77220;SDS011;66217;50.004;8.266;2022-12-24T05:20:56;19.23;;;3.00;;
77220;SDS011;66217;50.004;8.266;2022-12-24T05:23:22;12.98;;;2.10;;
77220;SDS011;66217;50.004;8.266;2022-12-24T05:26:17;13.00;;;2.45;;
77220;SDS011;66217;50.004;8.266;2022-12-24T05:28:49;14.38;;;3.08;;
77220;SDS011;66217;50.004;8.266;2022-12-24T05:31:16;13.10;;;2.90;;
77220;SDS011;66217;50.004;8.266;2022-12-24T05:33:42;11.18;;;2.30;;
77220;SDS011;66217;50.004;8.266;2022-12-24T05:36:08;19.10;;;3.25;;
77220;SDS011;66217;50.004;8.266;2022-12-24T05:38:34;18.17;;;3.00;;
77220;SDS011;66217;50.004;8.266;2022-12-24T05:40:59;9.85;;;2.33;;
77220;SDS011;66217;50.004;8.266;2022-12-24T05:43:25;10.82;;;2.33;;
77220;SDS011;66217;50.004;8.266;2022-12-24T05:45:50;15.20;;;2.70;;
77220;SDS011;66217;50.004;8.266;2022-12-24T05:48:15;16.55;;;3.50;;
77220;SDS011;66217;50.004;8.266;2022-12-24T05:50:43;12.80;;;2.38;;
77220;SDS011;66217;50.004;8.266;2022-12-24T05:53:09;11.00;;;2.17;;
77220;SDS011;66217;50.004;8.266;2022-12-24T05:55:34;17.95;;;2.72;;
77220;SDS011;66217;50.004;8.266;2022-12-24T05:57:59;14.70;;;2.70;;
77220;SDS011;66217;50.004;8.266;2022-12-24T06:00:25;14.40;;;3.00;;
77220;SDS011;66217;50.004;8.266;2022-12-24T06:02:50;8.55;;;2.17;;
77220;SDS011;66217;50.004;8.266;2022-12-24T06:05:16;11.48;;;1.92;;
77220;SDS011;66217;50.004;8.266;2022-12-24T06:07:41;14.93;;;2.45;;
77220;SDS011;66217;50.004;8.266;2022-12-24T06:10:07;19.23;;;3.55;;
77220;SDS011;66217;50.004;8.266;2022-12-24T06:12:33;9.60;;;2.30;;
77220;SDS011;66217;50.004;8.266;2022-12-24T06:14:58;9.18;;;2.30;;
77220;SDS011;66217;50.004;8.266;2022-12-24T06:17:24;18.13;;;3.17;;
77220;SDS011;66217;50.004;8.266;2022-12-24T06:19:49;13.77;;;2.72;;
77220;SDS011;66217;50.004;8.266;2022-12-24T06:22:15;15.30;;;2.95;;
77220;SDS011;66217;50.004;8.266;2022-12-24T06:24:40;13.93;;;2.53;;
77220;SDS011;66217;50.004;8.266;2022-12-24T06:27:05;13.25;;;2.25;;
77220;SDS011;66217;50.004;8.266;2022-12-24T06:29:31;14.85;;;2.72;;
77220;SDS011;66217;50.004;8.266;2022-12-24T06:31:56;18.33;;;2.22;;
77220;SDS011;66217;50.004;8.266;2022-12-24T06:34:22;13.48;;;2.75;;
77220;SDS011;66217;50.004;8.266;2022-12-24T06:36:47;22.58;;;3.13;;
77220;SDS011;66217;50.004;8.266;2022-12-24T06:39:13;16.80;;;3.22;;
77220;SDS011;66217;50.004;8.266;2022-12-24T06:41:38;12.77;;;2.90;;
77220;SDS011;66217;50.004;8.266;2022-12-24T06:44:03;18.08;;;3.08;;
77220;SDS011;66217;50.004;8.266;2022-12-24T06:46:29;16.92;;;2.83;;
77220;SDS011;66217;50.004;8.266;2022-12-24T06:48:54;14.77;;;2.80;;
77220;SDS011;66217;50.004;8.266;2022-12-24T06:51:20;14.70;;;3.00;;
77220;SDS011;66217;50.004;8.266;2022-12-24T06:53:46;14.15;;;3.25;;
77220;SDS011;66217;50.004;8.266;2022-12-24T06:56:12;12.88;;;3.47;;
77220;SDS011;66217;50.004;8.266;2022-12-24T06:58:38;17.67;;;3.47;;
77220;SDS011;66217;50.004;8.266;2022-12-24T07:01:05;14.80;;;3.38;;
77220;SDS011;66217;50.004;8.266;2022-12-24T07:03:32;14.18;;;2.88;;
77220;SDS011;66217;50.004;8.266;2022-12-24T07:05:58;26.65;;;3.42;;
77220;SDS011;66217;50.004;8.266;2022-12-24T07:08:24;17.05;;;3.22;;
77220;SDS011;66217;50.004;8.266;2022-12-24T07:10:50;18.80;;;2.80;;
77220;SDS011;66217;50.004;8.266;2022-12-24T07:13:16;19.05;;;3.00;;
77220;SDS011;66217;50.004;8.266;2022-12-24T07:15:42;13.73;;;3.15;;
77220;SDS011;66217;50.004;8.266;2022-12-24T07:18:08;16.48;;;2.83;;
77220;SDS011;66217;50.004;8.266;2022-12-24T07:20:33;16.35;;;2.88;;
77220;SDS011;66217;50.004;8.266;2022-12-24T07:22:59;15.90;;;3.38;;
77220;SDS011;66217;50.004;8.266;2022-12-24T07:25:24;13.25;;;2.58;;
77220;SDS011;66217;50.004;8.266;2022-12-24T07:27:50;22.83;;;3.28;;
77220;SDS011;66217;50.004;8.266;2022-12-24T07:30:15;22.83;;;3.65;;
77220;SDS011;66217;50.004;8.266;2022-12-24T07:32:43;18.55;;;2.90;;
77220;SDS011;66217;50.004;8.266;2022-12-24T07:37:07;16.95;;;3.13;;
77220;SDS011;66217;50.004;8.266;2022-12-24T07:39:33;18.13;;;3.22;;
77220;SDS011;66217;50.004;8.266;2022-12-24T07:42:07;21.60;;;3.90;;
77220;SDS011;66217;50.004;8.266;2022-12-24T07:44:34;14.15;;;2.60;;
77220;SDS011;66217;50.004;8.266;2022-12-24T07:47:01;27.88;;;3.72;;
77220;SDS011;66217;50.004;8.266;2022-12-24T07:49:28;21.10;;;2.80;;
77220;SDS011;66217;50.004;8.266;2022-12-24T07:51:54;17.40;;;3.17;;
77220;SDS011;66217;50.004;8.266;2022-12-24T07:54:21;18.52;;;3.88;;
77220;SDS011;66217;50.004;8.266;2022-12-24T07:56:48;22.85;;;3.38;;
77220;SDS011;66217;50.004;8.266;2022-12-24T07:59:16;20.67;;;3.38;;
77220;SDS011;66217;50.004;8.266;2022-12-24T08:01:42;16.38;;;2.72;;
77220;SDS011;66217;50.004;8.266;2022-12-24T08:04:37;20.00;;;3.70;;
77220;SDS011;66217;50.004;8.266;2022-12-24T08:07:03;18.73;;;3.92;;
77220;SDS011;66217;50.004;8.266;2022-12-24T08:09:33;17.83;;;4.15;;
77220;SDS011;66217;50.004;8.266;2022-12-24T08:11:59;16.42;;;3.72;;
77220;SDS011;66217;50.004;8.266;2022-12-24T08:14:27;16.27;;;3.28;;
77220;SDS011;66217;50.004;8.266;2022-12-24T08:16:53;15.48;;;2.95;;
77220;SDS011;66217;50.004;8.266;2022-12-24T08:19:18;12.68;;;2.88;;
77220;SDS011;66217;50.004;8.266;2022-12-24T08:21:44;21.55;;;4.18;;
77220;SDS011;66217;50.004;8.266;2022-12-24T08:24:09;17.83;;;3.95;;
77220;SDS011;66217;50.004;8.266;2022-12-24T08:26:35;22.75;;;3.92;;
77220;SDS011;66217;50.004;8.266;2022-12-24T08:29:01;17.38;;;3.17;;
77220;SDS011;66217;50.004;8.266;2022-12-24T08:31:27;22.27;;;3.97;;
77220;SDS011;66217;50.004;8.266;2022-12-24T08:33:53;22.00;;;4.15;;
77220;SDS011;66217;50.004;8.266;2022-12-24T08:36:18;19.88;;;3.78;;
77220;SDS011;66217;50.004;8.266;2022-12-24T08:38:44;10.93;;;3.45;;
77220;SDS011;66217;50.004;8.266;2022-12-24T08:41:09;20.75;;;4.75;;
77220;SDS011;66217;50.004;8.266;2022-12-24T08:43:35;18.85;;;3.80;;
77220;SDS011;66217;50.004;8.266;2022-12-24T08:46:04;24.00;;;4.13;;
77220;SDS011;66217;50.004;8.266;2022-12-24T08:48:30;19.88;;;3.60;;
77220;SDS011;66217;50.004;8.266;2022-12-24T08:50:56;29.27;;;4.13;;
77220;SDS011;66217;50.004;8.266;2022-12-24T08:53:22;22.98;;;3.75;;
77220;SDS011;66217;50.004;8.266;2022-12-24T08:55:47;26.98;;;4.53;;
77220;SDS011;66217;50.004;8.266;2022-12-24T08:58:13;18.42;;;3.78;;
77220;SDS011;66217;50.004;8.266;2022-12-24T09:00:38;18.40;;;3.45;;
77220;SDS011;66217;50.004;8.266;2022-12-24T09:03:04;22.73;;;3.60;;
77220;SDS011;66217;50.004;8.266;2022-12-24T09:05:29;20.38;;;4.03;;
77220;SDS011;66217;50.004;8.266;2022-12-24T09:07:55;22.17;;;3.67;;
77220;SDS011;66217;50.004;8.266;2022-12-24T09:10:20;19.42;;;4.13;;
77220;SDS011;66217;50.004;8.266;2022-12-24T09:12:46;17.48;;;3.65;;
77220;SDS011;66217;50.004;8.266;2022-12-24T09:15:12;28.13;;;4.97;;
77220;SDS011;66217;50.004;8.266;2022-12-24T09:17:38;19.13;;;3.92;;
77220;SDS011;66217;50.004;8.266;2022-12-24T09:20:05;20.75;;;3.92;;
77220;SDS011;66217;50.004;8.266;2022-12-24T09:22:34;20.25;;;3.90;;
77220;SDS011;66217;50.004;8.266;2022-12-24T09:25:02;20.63;;;3.55;;
77220;SDS011;66217;50.004;8.266;2022-12-24T09:27:30;21.02;;;3.80;;
77220;SDS011;66217;50.004;8.266;2022-12-24T09:29:56;20.42;;;3.95;;
77220;SDS011;66217;50.004;8.266;2022-12-24T09:32:21;21.05;;;4.57;;
77220;SDS011;66217;50.004;8.266;2022-12-24T09:34:47;22.30;;;4.00;;
77220;SDS011;66217;50.004;8.266;2022-12-24T09:37:12;17.77;;;4.07;;
77220;SDS011;66217;50.004;8.266;2022-12-24T09:39:38;18.90;;;3.53;;
77220;SDS011;66217;50.004;8.266;2022-12-24T09:42:11;17.00;;;3.40;;
77220;SDS011;66217;50.004;8.266;2022-12-24T09:50:00;24.92;;;4.40;;
77220;SDS011;66217;50.004;8.266;2022-12-24T09:52:28;22.60;;;4.20;;
77220;SDS011;66217;50.004;8.266;2022-12-24T09:55:06;12.65;;;3.13;;
77220;SDS011;66217;50.004;8.266;2022-12-24T09:57:40;21.30;;;3.72;;
77220;SDS011;66217;50.004;8.266;2022-12-24T10:00:18;20.17;;;3.60;;
77220;SDS011;66217;50.004;8.266;2022-12-24T10:02:46;21.45;;;3.90;;
77220;SDS011;66217;50.004;8.266;2022-12-24T10:05:14;16.27;;;3.40;;
77220;SDS011;66217;50.004;8.266;2022-12-24T10:10:20;14.75;;;3.63;;
77220;SDS011;66217;50.004;8.266;2022-12-24T10:12:50;26.58;;;4.55;;
77220;SDS011;66217;50.004;8.266;2022-12-24T10:23:37;20.48;;;4.10;;
77220;SDS011;66217;50.004;8.266;2022-12-24T10:26:11;12.52;;;3.65;;
77220;SDS011;66217;50.004;8.266;2022-12-24T10:28:51;19.70;;;3.58;;
77220;SDS011;66217;50.004;8.266;2022-12-24T10:31:22;16.30;;;3.70;;
77220;SDS011;66217;50.004;8.266;2022-12-24T10:33:53;17.20;;;3.15;;
77220;SDS011;66217;50.004;8.266;2022-12-24T10:36:25;17.40;;;3.83;;
77220;SDS011;66217;50.004;8.266;2022-12-24T10:38:52;18.77;;;4.25;;
77220;SDS011;66217;50.004;8.266;2022-12-24T10:41:20;21.73;;;3.95;;
77220;SDS011;66217;50.004;8.266;2022-12-24T10:43:46;14.40;;;3.70;;
77220;SDS011;66217;50.004;8.266;2022-12-24T10:46:22;14.85;;;3.60;;
77220;SDS011;66217;50.004;8.266;2022-12-24T10:48:54;19.90;;;4.38;;
77220;SDS011;66217;50.004;8.266;2022-12-24T10:51:56;21.65;;;4.07;;
77220;SDS011;66217;50.004;8.266;2022-12-24T10:54:26;12.00;;;3.55;;
77220;SDS011;66217;50.004;8.266;2022-12-24T10:56:57;20.63;;;3.50;;
77220;SDS011;66217;50.004;8.266;2022-12-24T11:02:24;16.33;;;3.08;;
77220;SDS011;66217;50.004;8.266;2022-12-24T11:04:52;11.60;;;3.03;;
77220;SDS011;66217;50.004;8.266;2022-12-24T11:07:18;11.75;;;2.72;;
77220;SDS011;66217;50.004;8.266;2022-12-24T11:10:05;17.67;;;3.58;;
77220;SDS011;66217;50.004;8.266;2022-12-24T11:12:33;17.73;;;3.45;;
77220;SDS011;66217;50.004;8.266;2022-12-24T11:15:05;15.52;;;2.97;;
77220;SDS011;66217;50.004;8.266;2022-12-24T11:17:39;14.52;;;3.28;;
77220;SDS011;66217;50.004;8.266;2022-12-24T11:20:04;15.80;;;3.00;;
77220;SDS011;66217;50.004;8.266;2022-12-24T11:22:31;17.73;;;3.53;;
77220;SDS011;66217;50.004;8.266;2022-12-24T11:25:13;13.70;;;3.28;;
77220;SDS011;66217;50.004;8.266;2022-12-24T11:27:44;13.50;;;3.60;;
77220;SDS011;66217;50.004;8.266;2022-12-24T11:32:39;17.55;;;3.58;;
77220;SDS011;66217;50.004;8.266;2022-12-24T11:35:17;14.70;;;3.38;;
77220;SDS011;66217;50.004;8.266;2022-12-24T11:40:24;18.08;;;3.10;;
77220;SDS011;66217;50.004;8.266;2022-12-24T11:42:58;22.00;;;3.40;;
77220;SDS011;66217;50.004;8.266;2022-12-24T11:45:25;13.88;;;3.13;;
77220;SDS011;66217;50.004;8.266;2022-12-24T11:47:52;27.88;;;4.13;;
77220;SDS011;66217;50.004;8.266;2022-12-24T11:50:28;19.17;;;3.42;;
77220;SDS011;66217;50.004;8.266;2022-12-24T11:55:41;16.60;;;2.90;;
77220;SDS011;66217;50.004;8.266;2022-12-24T12:00:50;11.50;;;2.60;;
77220;SDS011;66217;50.004;8.266;2022-12-24T12:03:23;17.70;;;3.10;;
77220;SDS011;66217;50.004;8.266;2022-12-24T12:05:54;22.52;;;3.47;;
77220;SDS011;66217;50.004;8.266;2022-12-24T12:08:20;18.08;;;4.88;;
77220;SDS011;66217;50.004;8.266;2022-12-24T12:10:46;13.82;;;2.95;;
77220;SDS011;66217;50.004;8.266;2022-12-24T12:13:18;20.00;;;3.78;;
77220;SDS011;66217;50.004;8.266;2022-12-24T12:15:48;18.00;;;3.25;;
77220;SDS011;66217;50.004;8.266;2022-12-24T12:18:23;17.83;;;3.15;;
77220;SDS011;66217;50.004;8.266;2022-12-24T12:20:57;17.25;;;3.38;;
77220;SDS011;66217;50.004;8.266;2022-12-24T12:23:30;15.75;;;2.80;;
77220;SDS011;66217;50.004;8.266;2022-12-24T12:25:59;19.17;;;2.88;;
77220;SDS011;66217;50.004;8.266;2022-12-24T12:36:25;14.55;;;3.22;;
77220;SDS011;66217;50.004;8.266;2022-12-24T12:38:56;16.05;;;3.72;;
77220;SDS011;66217;50.004;8.266;2022-12-24T12:41:42;17.15;;;3.25;;
77220;SDS011;66217;50.004;8.266;2022-12-24T12:46:57;13.35;;;3.67;;
77220;SDS011;66217;50.004;8.266;2022-12-24T12:57:22;22.52;;;3.78;;
77220;SDS011;66217;50.004;8.266;2022-12-24T12:59:55;16.95;;;3.38;;
77220;SDS011;66217;50.004;8.266;2022-12-24T13:05:11;17.90;;;2.95;;
77220;SDS011;66217;50.004;8.266;2022-12-24T13:16:07;12.13;;;2.92;;
77220;SDS011;66217;50.004;8.266;2022-12-24T13:21:33;20.27;;;3.53;;
77220;SDS011;66217;50.004;8.266;2022-12-24T13:24:17;15.00;;;3.00;;
77220;SDS011;66217;50.004;8.266;2022-12-24T13:29:42;18.23;;;4.35;;
77220;SDS011;66217;50.004;8.266;2022-12-24T13:34:52;15.45;;;3.50;;
77220;SDS011;66217;50.004;8.266;2022-12-24T13:39:59;24.58;;;3.90;;
77220;SDS011;66217;50.004;8.266;2022-12-24T13:47:54;23.30;;;4.30;;
77220;SDS011;66217;50.004;8.266;2022-12-24T13:53:04;17.83;;;3.90;;
77220;SDS011;66217;50.004;8.266;2022-12-24T13:55:30;21.23;;;3.22;;
77220;SDS011;66217;50.004;8.266;2022-12-24T13:57:59;26.95;;;4.35;;
77220;SDS011;66217;50.004;8.266;2022-12-24T14:00:33;21.30;;;4.97;;
77220;SDS011;66217;50.004;8.266;2022-12-24T14:06:01;27.88;;;4.72;;
77220;SDS011;66217;50.004;8.266;2022-12-24T14:08:41;20.85;;;3.80;;
77220;SDS011;66217;50.004;8.266;2022-12-24T14:11:12;21.55;;;4.43;;
77220;SDS011;66217;50.004;8.266;2022-12-24T14:16:18;25.23;;;4.82;;
77220;SDS011;66217;50.004;8.266;2022-12-24T14:18:58;28.27;;;4.65;;
77220;SDS011;66217;50.004;8.266;2022-12-24T14:21:35;22.00;;;5.10;;
77220;SDS011;66217;50.004;8.266;2022-12-24T14:24:04;24.63;;;4.53;;
77220;SDS011;66217;50.004;8.266;2022-12-24T14:26:35;26.40;;;5.18;;
77220;SDS011;66217;50.004;8.266;2022-12-24T14:29:17;21.70;;;3.97;;
77220;SDS011;66217;50.004;8.266;2022-12-24T14:31:54;19.48;;;4.05;;
77220;SDS011;66217;50.004;8.266;2022-12-24T14:34:21;32.25;;;5.65;;
77220;SDS011;66217;50.004;8.266;2022-12-24T14:36:47;24.52;;;4.22;;
77220;SDS011;66217;50.004;8.266;2022-12-24T14:39:32;21.35;;;4.93;;
77220;SDS011;66217;50.004;8.266;2022-12-24T14:44:45;16.38;;;3.97;;
77220;SDS011;66217;50.004;8.266;2022-12-24T14:47:19;14.25;;;3.28;;
77220;SDS011;66217;50.004;8.266;2022-12-24T14:55:34;19.67;;;3.90;;
77220;SDS011;66217;50.004;8.266;2022-12-24T15:00:58;17.23;;;3.90;;
77220;SDS011;66217;50.004;8.266;2022-12-24T15:03:26;16.77;;;3.83;;
77220;SDS011;66217;50.004;8.266;2022-12-24T15:05:54;16.63;;;4.07;;
77220;SDS011;66217;50.004;8.266;2022-12-24T15:08:26;20.27;;;4.20;;
77220;SDS011;66217;50.004;8.266;2022-12-24T15:10:56;22.55;;;4.45;;
77220;SDS011;66217;50.004;8.266;2022-12-24T15:15:58;14.95;;;4.00;;
77220;SDS011;66217;50.004;8.266;2022-12-24T15:18:25;16.10;;;4.15;;
77220;SDS011;66217;50.004;8.266;2022-12-24T15:20:53;18.48;;;4.70;;
77220;SDS011;66217;50.004;8.266;2022-12-24T15:23:25;21.15;;;3.67;;
77220;SDS011;66217;50.004;8.266;2022-12-24T15:26:04;16.73;;;3.80;;
77220;SDS011;66217;50.004;8.266;2022-12-24T15:28:40;17.38;;;3.83;;
77220;SDS011;66217;50.004;8.266;2022-12-24T15:31:12;18.90;;;3.75;;
77220;SDS011;66217;50.004;8.266;2022-12-24T15:33:44;13.68;;;3.17;;
77220;SDS011;66217;50.004;8.266;2022-12-24T15:39:00;18.77;;;3.30;;
77220;SDS011;66217;50.004;8.266;2022-12-24T15:41:29;14.80;;;3.75;;
77220;SDS011;66217;50.004;8.266;2022-12-24T15:44:02;14.70;;;3.95;;
77220;SDS011;66217;50.004;8.266;2022-12-24T15:46:28;12.93;;;4.15;;
77220;SDS011;66217;50.004;8.266;2022-12-24T15:48:55;15.02;;;4.22;;
77220;SDS011;66217;50.004;8.266;2022-12-24T15:51:25;14.25;;;3.47;;
77220;SDS011;66217;50.004;8.266;2022-12-24T15:54:02;18.17;;;4.05;;
77220;SDS011;66217;50.004;8.266;2022-12-24T15:59:11;15.45;;;3.50;;
77220;SDS011;66217;50.004;8.266;2022-12-24T16:01:37;19.80;;;4.20;;
77220;SDS011;66217;50.004;8.266;2022-12-24T16:07:01;23.48;;;4.63;;
77220;SDS011;66217;50.004;8.266;2022-12-24T16:12:19;14.98;;;3.95;;
77220;SDS011;66217;50.004;8.266;2022-12-24T16:14:47;22.58;;;4.60;;
77220;SDS011;66217;50.004;8.266;2022-12-24T16:17:18;15.25;;;4.05;;
77220;SDS011;66217;50.004;8.266;2022-12-24T16:19:47;14.27;;;4.50;;
77220;SDS011;66217;50.004;8.266;2022-12-24T16:22:16;18.45;;;5.07;;
77220;SDS011;66217;50.004;8.266;2022-12-24T16:27:50;21.30;;;4.80;;
77220;SDS011;66217;50.004;8.266;2022-12-24T16:30:16;17.08;;;4.43;;
77220;SDS011;66217;50.004;8.266;2022-12-24T16:32:42;15.60;;;3.92;;
77220;SDS011;66217;50.004;8.266;2022-12-24T16:35:26;21.05;;;4.85;;
77220;SDS011;66217;50.004;8.266;2022-12-24T16:37:53;12.45;;;4.13;;
77220;SDS011;66217;50.004;8.266;2022-12-24T16:40:19;20.20;;;4.05;;
77220;SDS011;66217;50.004;8.266;2022-12-24T16:42:45;16.38;;;4.22;;
77220;SDS011;66217;50.004;8.266;2022-12-24T16:45:29;21.58;;;4.80;;
77220;SDS011;66217;50.004;8.266;2022-12-24T16:47:57;13.15;;;4.57;;
77220;SDS011;66217;50.004;8.266;2022-12-24T16:50:23;16.65;;;4.38;;
77220;SDS011;66217;50.004;8.266;2022-12-24T16:52:48;18.02;;;4.88;;
77220;SDS011;66217;50.004;8.266;2022-12-24T16:55:14;26.83;;;4.97;;
77220;SDS011;66217;50.004;8.266;2022-12-24T16:57:40;20.50;;;4.53;;
77220;SDS011;66217;50.004;8.266;2022-12-24T17:00:10;14.70;;;3.88;;